Time;durP1;ratioP1;P1;durP2;ratioP2;P2;SDS_P1;SDS_P2;PMS_P1;PMS_P2;Temp;Humidity;BMP_temperature;BMP_pressure;BME280_temperature;BME280_humidity;BME280_pressure;Samples;Min_cycle;Max_cycle;Signal;HPM_P1;HPM_P2
2022/07/16 00:01:22;;;;;;;3.87;3.10;;;20.90;61.00;;;;;;5025965;28;20472;-82
2022/07/16 00:01:49;;;;;;;7.20;3.00;;;20.80;60.10;;;;;;5024791;28;20457;-83
2022/07/16 00:04:16;;;;;;;5.90;2.13;;;20.80;60.50;;;;;;5023872;28;20469;-84
2022/07/16 00:06:43;;;;;;;3.00;2.40;;;20.70;60.80;;;;;;5024044;28;20457;-85
2022/07/16 00:09:12;;;;;;;3.90;2.20;;;20.80;60.80;;;;;;5007208;28;20503;-82
2022/07/16 00:11:39;;;;;;;3.70;2.20;;;20.90;60.40;;;;;;5023946;28;20461;-82
2022/07/16 00:14:06;;;;;;;5.90;2.00;;;21.00;60.30;;;;;;5024471;28;20460;-83
2022/07/16 00:16:33;;;;;;;5.13;2.40;;;20.80;60.40;;;;;;5024810;28;20453;-84
2022/07/16 00:19:19;;;;;;;4.00;2.33;;;20.60;61.10;;;;;;5004559;28;20473;-85
2022/07/16 00:21:48;;;;;;;6.63;2.60;;;20.40;62.10;;;;;;5006498;28;20449;-83
2022/07/16 00:24:15;;;;;;;5.40;1.97;;;20.30;62.90;;;;;;5023608;28;20464;-83
2022/07/16 00:26:42;;;;;;;5.87;2.60;;;20.20;63.20;;;;;;5007758;28;20896;-83
2022/07/16 00:29:09;;;;;;;4.43;2.53;;;20.20;63.30;;;;;;4989202;28;20552;-83
2022/07/16 00:31:36;;;;;;;6.10;2.23;;;20.20;63.40;;;;;;4994535;28;20457;-84
2022/07/16 00:34:08;;;;;;;3.17;1.90;;;20.20;63.50;;;;;;5023056;28;20453;-85
2022/07/16 00:36:36;;;;;;;4.83;2.10;;;20.20;63.50;;;;;;5023233;28;20445;-84
2022/07/16 00:39:05;;;;;;;2.70;1.80;;;20.10;63.60;;;;;;5024044;28;21006;-84
2022/07/16 00:41:33;;;;;;;3.90;2.07;;;20.10;63.70;;;;;;5026796;28;20460;-86
2022/07/16 00:44:04;;;;;;;5.30;2.97;;;20.00;63.80;;;;;;5028683;28;20465;-84
2022/07/16 00:46:32;;;;;;;4.23;2.10;;;20.00;63.90;;;;;;5029663;28;20524;-85
2022/07/16 00:48:59;;;;;;;3.50;1.90;;;20.00;64.80;;;;;;5022744;28;20515;-84
2022/07/16 00:51:27;;;;;;;7.13;2.43;;;20.10;63.90;;;;;;5020103;28;20450;-86
2022/07/16 00:53:55;;;;;;;5.03;2.80;;;20.10;64.00;;;;;;5006755;28;20437;-83
2022/07/16 00:56:22;;;;;;;4.20;2.37;;;20.10;64.10;;;;;;5007211;28;20456;-82
2022/07/16 00:58:50;;;;;;;2.67;1.90;;;20.20;64.20;;;;;;5020690;28;20485;-83
2022/07/16 01:01:17;;;;;;;5.83;2.23;;;20.40;63.40;;;;;;5021758;28;20465;-84
2022/07/16 01:03:44;;;;;;;3.37;1.93;;;20.30;63.20;;;;;;5025648;28;20456;-85
2022/07/16 01:06:13;;;;;;;6.93;2.47;;;20.20;63.70;;;;;;5007061;28;20465;-84
2022/07/16 01:08:43;;;;;;;11.17;3.83;;;20.20;64.00;;;;;;5023540;28;20478;-83
2022/07/16 01:11:11;;;;;;;5.70;2.40;;;20.10;64.20;;;;;;5023986;28;20560;-83
2022/07/16 01:13:40;;;;;;;7.17;1.93;;;19.90;64.60;;;;;;5023444;28;20460;-83
2022/07/16 01:16:08;;;;;;;3.67;1.90;;;19.70;65.60;;;;;;5024554;28;20885;-85
2022/07/16 01:18:36;;;;;;;2.17;1.83;;;19.60;66.40;;;;;;5020497;28;20487;-83
2022/07/16 01:21:03;;;;;;;7.37;2.67;;;19.60;67.00;;;;;;5005930;28;20464;-83
2022/07/16 01:23:30;;;;;;;5.10;2.20;;;19.70;66.80;;;;;;5021989;28;20840;-85
2022/07/16 01:25:57;;;;;;;5.40;2.87;;;19.90;66.30;;;;;;5020746;28;20464;-86
2022/07/16 01:28:24;;;;;;;9.13;3.03;;;19.80;66.00;;;;;;5021766;28;20485;-82
2022/07/16 01:30:50;;;;;;;2.80;2.33;;;19.90;66.20;;;;;;5011924;28;20541;-84
2022/07/16 01:33:29;;;;;;;5.97;2.13;;;19.70;66.50;;;;;;5028656;28;20459;-84
2022/07/16 01:36:07;;;;;;;4.53;2.70;;;19.70;66.90;;;;;;5008140;28;20450;-85
2022/07/16 01:38:40;;;;;;;3.23;1.80;;;19.60;67.20;;;;;;5010664;28;20492;-85
2022/07/16 01:41:07;;;;;;;2.73;2.40;;;19.50;67.60;;;;;;5005839;28;20483;-85
2022/07/16 01:43:35;;;;;;;4.07;2.40;;;19.40;68.00;;;;;;5005573;28;20540;-84
2022/07/16 01:46:02;;;;;;;4.90;2.30;;;19.40;68.40;;;;;;5021211;28;20828;-83
2022/07/16 01:48:30;;;;;;;5.07;2.33;;;19.40;68.60;;;;;;5021565;28;21049;-82
2022/07/16 01:50:57;;;;;;;4.70;2.60;;;19.40;68.80;;;;;;5021868;28;20451;-82
2022/07/16 01:53:25;;;;;;;5.93;2.40;;;19.40;69.20;;;;;;5001799;28;20983;-85
2022/07/16 01:55:52;;;;;;;3.83;2.40;;;19.40;69.30;;;;;;5020358;28;20457;-82
2022/07/16 01:58:18;;;;;;;5.60;2.33;;;19.40;69.30;;;;;;5021967;28;20493;-83
2022/07/16 02:00:46;;;;;;;6.13;2.63;;;19.30;69.50;;;;;;5002048;28;20445;-84
2022/07/16 02:03:14;;;;;;;7.90;2.10;;;19.30;69.60;;;;;;5022927;28;20451;-83
2022/07/16 02:05:41;;;;;;;3.00;2.20;;;19.30;69.70;;;;;;5028279;28;20453;-84
2022/07/16 02:08:09;;;;;;;6.70;3.37;;;19.40;69.80;;;;;;5009127;28;20841;-85
2022/07/16 02:10:36;;;;;;;4.50;2.27;;;19.30;70.00;;;;;;5035514;28;20461;-85
2022/07/16 02:13:03;;;;;;;4.07;2.63;;;19.30;70.40;;;;;;5017693;28;20560;-83
2022/07/16 02:15:31;;;;;;;7.67;2.67;;;19.30;70.90;;;;;;5021923;28;20442;-84
2022/07/16 02:17:58;;;;;;;3.73;2.40;;;19.20;71.20;;;;;;5027386;28;21102;-84
2022/07/16 02:20:26;;;;;;;4.77;2.40;;;19.20;71.40;;;;;;5022647;28;20458;-83
2022/07/16 02:22:54;;;;;;;4.17;2.37;;;19.40;71.20;;;;;;5023548;28;20456;-85
2022/07/16 02:25:21;;;;;;;3.93;2.40;;;19.70;70.40;;;;;;5007129;28;20460;-83
2022/07/16 02:28:06;;;;;;;4.60;2.53;;;19.60;70.20;;;;;;5006340;28;20455;-85
2022/07/16 02:30:44;;;;;;;8.57;2.07;;;19.40;70.50;;;;;;5024590;28;20521;-85
2022/07/16 02:33:15;;;;;;;7.17;2.40;;;19.40;71.30;;;;;;5026495;28;20446;-83
2022/07/16 02:35:42;;;;;;;3.53;2.20;;;19.20;71.60;;;;;;5031099;28;20477;-84
2022/07/16 02:38:10;;;;;;;4.63;2.60;;;19.10;72.20;;;;;;5016284;28;20554;-86
2022/07/16 02:40:38;;;;;;;3.43;2.63;;;18.90;72.70;;;;;;5017810;28;20453;-85
2022/07/16 02:43:06;;;;;;;6.13;2.73;;;18.80;73.70;;;;;;5037007;28;20543;-86
2022/07/16 02:45:36;;;;;;;8.07;2.90;;;18.70;74.50;;;;;;5022237;28;20464;-86
2022/07/16 02:48:04;;;;;;;2.70;2.50;;;18.70;75.50;;;;;;5017421;28;20560;-86
2022/07/16 02:50:31;;;;;;;5.80;2.77;;;18.90;75.10;;;;;;5035183;28;20514;-86
2022/07/16 02:52:58;;;;;;;3.60;2.47;;;19.10;74.20;;;;;;5037846;28;21228;-87
2022/07/16 02:55:26;;;;;;;3.97;2.70;;;18.90;74.20;;;;;;5037963;28;20449;-87
2022/07/16 02:57:54;;;;;;;5.30;3.20;;;18.80;74.90;;;;;;5035852;28;20457;-85
2022/07/16 03:00:25;;;;;;;6.83;3.40;;;18.70;75.40;;;;;;5037806;28;20438;-84
2022/07/16 03:02:55;;;;;;;5.50;2.50;;;18.80;75.90;;;;;;5030613;28;22847;-85
2022/07/16 03:05:35;;;;;;;4.13;2.20;;;18.80;76.60;;;;;;5019290;28;20473;-84
2022/07/16 03:08:04;;;;;;;4.20;2.67;;;18.70;76.30;;;;;;5003974;28;20505;-84
2022/07/16 03:10:34;;;;;;;4.20;2.50;;;18.80;76.30;;;;;;5021064;28;21082;-84
2022/07/16 03:13:01;;;;;;;5.03;2.97;;;18.70;76.60;;;;;;5004115;28;21141;-84
2022/07/16 03:15:28;;;;;;;3.87;2.60;;;18.60;77.30;;;;;;5024020;28;20461;-84
2022/07/16 03:17:55;;;;;;;3.67;2.70;;;18.50;78.10;;;;;;5000507;28;20460;-84
2022/07/16 03:20:23;;;;;;;3.37;2.67;;;18.30;78.80;;;;;;5020791;28;20465;-83
2022/07/16 03:22:57;;;;;;;5.83;2.70;;;18.30;79.70;;;;;;5022116;28;20469;-85
2022/07/16 03:25:32;;;;;;;3.50;2.90;;;18.30;80.20;;;;;;5003771;28;20601;-84
2022/07/16 03:28:01;;;;;;;3.00;2.40;;;18.30;80.70;;;;;;5019040;28;20488;-85
2022/07/16 03:30:33;;;;;;;5.50;3.03;;;18.30;81.10;;;;;;5018990;28;20477;-85
2022/07/16 03:33:03;;;;;;;3.03;2.23;;;18.20;81.40;;;;;;5021802;28;20453;-84
2022/07/16 03:35:33;;;;;;;4.57;2.30;;;18.30;81.90;;;;;;5001654;28;20496;-85
2022/07/16 03:40:54;;;;;;;8.23;2.87;;;18.30;82.10;;;;;;5023669;28;20456;-83
2022/07/16 03:43:28;;;;;;;5.13;2.93;;;18.20;82.40;;;;;;5002571;28;21030;-83
2022/07/16 03:45:55;;;;;;;2.77;2.57;;;18.30;82.80;;;;;;5022572;28;20465;-84
2022/07/16 03:48:29;;;;;;;9.03;3.43;;;18.30;82.60;;;;;;5020497;28;20481;-85
2022/07/16 03:51:01;;;;;;;3.80;2.77;;;18.20;83.00;;;;;;5004985;28;21038;-87
2022/07/16 03:53:27;;;;;;;3.87;2.90;;;18.40;82.60;;;;;;5023488;28;20468;-84
2022/07/16 03:56:01;;;;;;;9.40;2.77;;;18.40;82.30;;;;;;5022900;28;20635;-85
2022/07/16 03:58:28;;;;;;;3.90;3.00;;;18.40;82.50;;;;;;5025263;28;20849;-83
2022/07/16 04:00:56;;;;;;;5.70;3.00;;;18.40;82.40;;;;;;5005437;28;20552;-84
2022/07/16 04:03:39;;;;;;;7.53;2.80;;;18.40;82.60;;;;;;5023745;28;20472;-85
2022/07/16 04:06:06;;;;;;;3.67;3.03;;;18.40;82.80;;;;;;4989568;28;20467;-84
2022/07/16 04:08:41;;;;;;;3.47;2.60;;;18.30;82.90;;;;;;5004729;28;20477;-85
2022/07/16 04:11:15;;;;;;;6.23;3.10;;;18.40;82.90;;;;;;5002154;28;22406;-83
2022/07/16 04:13:42;;;;;;;5.23;2.93;;;18.50;82.70;;;;;;5018896;28;20445;-84
2022/07/16 04:16:09;;;;;;;7.80;3.03;;;18.40;82.90;;;;;;5008666;28;20588;-84
2022/07/16 04:18:37;;;;;;;5.70;3.00;;;18.50;82.70;;;;;;5027546;28;20515;-84
2022/07/16 04:21:05;;;;;;;4.73;3.30;;;18.60;82.20;;;;;;5024757;28;21567;-84
2022/07/16 04:23:33;;;;;;;3.17;2.87;;;18.60;82.10;;;;;;5023519;28;20488;-86
2022/07/16 04:26:00;;;;;;;6.93;3.10;;;18.70;81.90;;;;;;5002811;28;20450;-83
2022/07/16 04:28:27;;;;;;;3.50;2.87;;;18.70;82.20;;;;;;5009581;28;20484;-85
2022/07/16 04:30:54;;;;;;;4.97;2.90;;;18.70;82.00;;;;;;5007300;28;20996;-82
2022/07/16 04:33:21;;;;;;;4.57;3.80;;;18.70;81.90;;;;;;5010967;28;21128;-83
2022/07/16 04:35:48;;;;;;;3.90;3.37;;;18.60;82.60;;;;;;5014374;28;21147;-85
2022/07/16 04:38:17;;;;;;;7.83;3.20;;;18.60;83.20;;;;;;5011112;28;20505;-84
2022/07/16 04:40:44;;;;;;;7.27;3.00;;;18.60;83.10;;;;;;5009505;28;20550;-83
2022/07/16 04:43:11;;;;;;;6.00;2.97;;;18.70;82.80;;;;;;5008916;28;20526;-84
2022/07/16 04:45:38;;;;;;;4.20;2.60;;;18.60;83.10;;;;;;5032102;28;20483;-82
2022/07/16 04:48:05;;;;;;;5.53;3.23;;;18.50;83.60;;;;;;5015251;28;20472;-83
2022/07/16 04:50:32;;;;;;;4.67;3.33;;;18.50;84.40;;;;;;5013187;28;20483;-85
2022/07/16 04:52:59;;;;;;;3.30;2.63;;;18.60;84.60;;;;;;5026768;28;20469;-82
2022/07/16 04:55:26;;;;;;;4.57;3.27;;;18.90;83.20;;;;;;5026467;28;20457;-84
2022/07/16 04:57:52;;;;;;;3.43;3.00;;;18.80;82.80;;;;;;5031380;28;20468;-83
2022/07/16 05:00:24;;;;;;;4.67;3.17;;;18.80;83.50;;;;;;5030221;28;20458;-83
2022/07/16 05:02:56;;;;;;;3.47;3.17;;;18.80;83.70;;;;;;5029203;28;20489;-84
2022/07/16 05:05:26;;;;;;;4.53;3.30;;;18.90;83.80;;;;;;5028002;28;20460;-86
2022/07/16 05:07:52;;;;;;;3.77;3.47;;;18.80;83.40;;;;;;5028516;28;20453;-84
2022/07/16 05:10:19;;;;;;;4.23;3.70;;;18.80;83.50;;;;;;5029249;28;20482;-86
2022/07/16 05:12:46;;;;;;;5.37;3.30;;;19.00;82.70;;;;;;5029462;28;21606;-84
2022/07/16 05:15:13;;;;;;;4.50;3.70;;;19.00;81.70;;;;;;5027167;28;20453;-84
2022/07/16 05:17:40;;;;;;;5.53;3.57;;;18.80;82.70;;;;;;5026579;28;20454;-85
2022/07/16 05:20:07;;;;;;;3.23;3.00;;;18.90;82.50;;;;;;5028262;28;20548;-84
2022/07/16 05:22:34;;;;;;;4.13;2.97;;;18.80;82.20;;;;;;5010541;28;20453;-86
2022/07/16 05:25:01;;;;;;;4.37;3.30;;;18.70;82.70;;;;;;5027588;28;20497;-84
2022/07/16 05:27:28;;;;;;;5.00;3.00;;;18.80;83.50;;;;;;5032263;28;20453;-83
2022/07/16 05:29:54;;;;;;;4.30;3.33;;;18.90;83.10;;;;;;5019655;28;20491;-84
2022/07/16 05:32:21;;;;;;;7.60;3.77;;;18.90;82.60;;;;;;5041605;28;21051;-85
2022/07/16 05:34:48;;;;;;;3.27;3.07;;;18.90;82.80;;;;;;5011239;28;20465;-84
2022/07/16 05:37:15;;;;;;;8.33;3.80;;;19.00;82.70;;;;;;5011397;28;20465;-86
2022/07/16 05:39:42;;;;;;;6.03;4.27;;;18.80;82.50;;;;;;5029948;28;20505;-85
2022/07/16 05:42:09;;;;;;;6.37;3.40;;;18.90;83.00;;;;;;5001384;28;20477;-85
2022/07/16 05:44:35;;;;;;;5.70;3.13;;;18.70;82.90;;;;;;5017830;28;20450;-85
2022/07/16 05:47:02;;;;;;;3.87;3.47;;;18.60;84.00;;;;;;5029562;28;20452;-86
2022/07/16 05:49:29;;;;;;;4.50;3.03;;;18.80;83.80;;;;;;5011983;28;20495;-83
2022/07/16 05:51:56;;;;;;;3.67;3.37;;;18.90;83.00;;;;;;5029977;28;20544;-84
2022/07/16 05:54:23;;;;;;;3.33;3.03;;;19.00;82.50;;;;;;5027117;28;20457;-82
2022/07/16 05:56:49;;;;;;;3.83;2.97;;;19.00;82.10;;;;;;5032047;28;20450;-86
2022/07/16 05:59:18;;;;;;;3.77;2.90;;;18.90;82.20;;;;;;5031050;28;20489;-86
2022/07/16 06:01:45;;;;;;;8.17;4.07;;;18.80;83.10;;;;;;5028170;28;20452;-85
2022/07/16 06:04:15;;;;;;;11.33;3.60;;;18.80;83.60;;;;;;5032182;28;20520;-84
2022/07/16 06:06:42;;;;;;;3.93;3.23;;;18.90;83.70;;;;;;5031395;28;20464;-84
2022/07/16 06:09:08;;;;;;;4.20;3.53;;;18.90;83.40;;;;;;5030975;28;20506;-85
2022/07/16 06:11:35;;;;;;;4.57;3.40;;;19.00;83.80;;;;;;5032292;28;20450;-83
2022/07/16 06:14:04;;;;;;;3.63;3.00;;;19.40;81.70;;;;;;5019010;28;20967;-84
2022/07/16 06:16:34;;;;;;;4.53;3.80;;;19.30;81.20;;;;;;5032368;28;20544;-85
2022/07/16 06:19:02;;;;;;;6.80;3.80;;;19.40;81.50;;;;;;5028088;28;20473;-86
2022/07/16 06:21:28;;;;;;;3.90;2.90;;;19.40;81.20;;;;;;5027708;28;20529;-85
2022/07/16 06:23:55;;;;;;;5.10;3.20;;;19.20;81.80;;;;;;5011494;28;21412;-85
2022/07/16 06:26:24;;;;;;;4.60;3.30;;;19.20;82.50;;;;;;5028947;28;20462;-85
2022/07/16 06:28:51;;;;;;;5.83;3.70;;;19.30;82.60;;;;;;5018892;28;20556;-83
2022/07/16 06:31:18;;;;;;;3.13;2.80;;;19.40;81.60;;;;;;5019500;28;20489;-83
2022/07/16 06:33:45;;;;;;;8.27;4.10;;;19.30;81.90;;;;;;5029065;28;20457;-81
2022/07/16 06:36:12;;;;;;;8.33;2.97;;;19.20;81.40;;;;;;5007491;28;20465;-84
2022/07/16 06:38:38;;;;;;;2.77;2.27;;;19.20;81.20;;;;;;5026488;28;20572;-83
2022/07/16 06:41:05;;;;;;;5.90;2.90;;;19.20;81.10;;;;;;5027419;28;20466;-84
2022/07/16 06:43:32;;;;;;;2.40;2.10;;;19.10;81.20;;;;;;4999336;28;20451;-83
2022/07/16 06:46:00;;;;;;;4.20;2.87;;;19.20;80.70;;;;;;5002107;28;20522;-83
2022/07/16 06:48:26;;;;;;;15.43;4.80;;;19.20;80.30;;;;;;5009526;28;20475;-82
2022/07/16 06:50:54;;;;;;;61.27;45.63;;;19.30;80.60;;;;;;5006108;28;20485;-83
2022/07/16 06:53:21;;;;;;;5.00;2.73;;;19.30;80.00;;;;;;5004985;28;20542;-83
2022/07/16 06:55:48;;;;;;;3.57;2.47;;;19.30;80.10;;;;;;5005843;28;20833;-84
2022/07/16 06:58:14;;;;;;;5.33;2.20;;;19.40;80.20;;;;;;5023496;28;20569;-84
2022/07/16 07:00:41;;;;;;;3.50;2.10;;;19.40;80.20;;;;;;5026615;28;20848;-84
2022/07/16 07:03:08;;;;;;;2.47;2.27;;;19.40;80.00;;;;;;5027687;28;20456;-84
2022/07/16 07:05:35;;;;;;;4.77;2.30;;;19.40;80.30;;;;;;5008844;28;20469;-84
2022/07/16 07:08:01;;;;;;;4.37;3.30;;;19.50;80.30;;;;;;5011154;28;20473;-84
2022/07/16 07:10:28;;;;;;;6.83;2.80;;;19.60;80.60;;;;;;5024540;28;20482;-85
2022/07/16 07:12:55;;;;;;;6.20;3.17;;;19.60;81.40;;;;;;5037939;28;20462;-85
2022/07/16 07:15:22;;;;;;;5.53;3.20;;;19.80;82.10;;;;;;5042031;28;20444;-86
2022/07/16 07:17:50;;;;;;;4.77;3.77;;;19.90;82.00;;;;;;5037021;28;20457;-85
2022/07/16 07:20:17;;;;;;;7.60;3.50;;;20.00;82.00;;;;;;5023257;28;20457;-83
2022/07/16 07:22:49;;;;;;;5.10;4.60;;;20.10;82.40;;;;;;5019276;28;20467;-84
2022/07/16 07:25:16;;;;;;;4.33;3.67;;;20.30;82.60;;;;;;5038215;28;20609;-86
2022/07/16 07:27:43;;;;;;;6.33;3.97;;;20.40;82.50;;;;;;5030407;28;22216;-84
2022/07/16 07:30:11;;;;;;;5.40;3.30;;;20.80;82.40;;;;;;5007852;28;20512;-85
2022/07/16 07:32:38;;;;;;;7.17;4.40;;;20.90;81.90;;;;;;5009604;28;20449;-84
2022/07/16 07:35:06;;;;;;;8.47;4.67;;;21.00;82.20;;;;;;5002541;28;20931;-84
2022/07/16 07:37:33;;;;;;;7.00;4.90;;;21.20;82.30;;;;;;5023499;28;20485;-85
2022/07/16 07:40:02;;;;;;;6.90;4.43;;;21.40;82.10;;;;;;5025246;28;20484;-83
2022/07/16 07:42:29;;;;;;;6.00;5.03;;;21.70;82.00;;;;;;5019928;28;20458;-85
2022/07/16 07:44:55;;;;;;;6.57;4.70;;;21.70;81.30;;;;;;5025217;28;20449;-86
2022/07/16 07:47:25;;;;;;;8.93;4.27;;;21.80;81.50;;;;;;5022831;28;20570;-84
2022/07/16 07:50:09;;;;;;;5.80;5.20;;;21.80;81.40;;;;;;5008225;28;20487;-84
2022/07/16 07:52:54;;;;;;;7.03;4.33;;;21.80;81.20;;;;;;5023746;28;20507;-84
2022/07/16 07:55:23;;;;;;;6.10;4.43;;;21.90;81.00;;;;;;5025811;28;20972;-86
2022/07/16 07:57:52;;;;;;;6.30;4.57;;;21.90;81.00;;;;;;5015163;28;20476;-84
2022/07/16 08:00:19;;;;;;;5.30;4.13;;;21.70;81.80;;;;;;5005480;28;20456;-86
2022/07/16 08:02:46;;;;;;;6.73;4.87;;;21.70;82.50;;;;;;5029268;28;20464;-83
2022/07/16 08:05:13;;;;;;;6.33;5.23;;;21.90;82.10;;;;;;5009501;28;20450;-84
2022/07/16 08:08:03;;;;;;;6.80;4.93;;;22.00;81.90;;;;;;5023769;28;20468;-83
2022/07/16 08:10:30;;;;;;;5.40;4.60;;;22.20;81.10;;;;;;5026802;28;20480;-84
2022/07/16 08:12:56;;;;;;;5.97;4.53;;;22.50;79.90;;;;;;5030686;28;20456;-85
2022/07/16 08:15:23;;;;;;;6.17;5.57;;;22.80;78.60;;;;;;5011597;28;20599;-86
2022/07/16 08:17:50;;;;;;;5.27;4.87;;;23.30;77.70;;;;;;5027121;28;21013;-85
2022/07/16 08:20:17;;;;;;;5.30;4.80;;;23.30;76.40;;;;;;5011259;28;20485;-84
2022/07/16 08:22:44;;;;;;;5.80;4.93;;;23.10;77.00;;;;;;5030089;28;20459;-85
2022/07/16 08:27:56;;;;;;;7.70;7.00;;;23.10;76.80;;;;;;5033005;28;20480;-85
2022/07/16 08:30:23;;;;;;;6.40;5.47;;;23.00;76.60;;;;;;5030300;28;20488;-85
2022/07/16 08:32:50;;;;;;;8.40;5.20;;;23.00;76.70;;;;;;5029805;28;20450;-86
2022/07/16 08:35:17;;;;;;;5.97;5.47;;;23.20;76.20;;;;;;5030204;28;20912;-86
2022/07/16 08:37:46;;;;;;;4.80;4.40;;;23.00;76.50;;;;;;5011031;28;20469;-86
2022/07/16 08:40:20;;;;;;;8.53;5.30;;;23.20;76.60;;;;;;5011868;28;20476;-85
2022/07/16 08:42:48;;;;;;;5.03;4.63;;;23.90;74.30;;;;;;5027379;28;20484;-86
2022/07/16 08:45:17;;;;;;;5.40;5.00;;;23.80;73.80;;;;;;5013763;28;20749;-84
2022/07/16 08:47:44;;;;;;;5.83;5.00;;;23.30;75.30;;;;;;5026918;28;20452;-84
2022/07/16 08:50:14;;;;;;;5.30;4.90;;;23.40;75.70;;;;;;5026742;28;20485;-86
2022/07/16 08:52:43;;;;;;;8.03;5.07;;;24.40;74.40;;;;;;5009422;28;20449;-85
2022/07/16 08:55:11;;;;;;;4.87;4.33;;;24.90;70.90;;;;;;5011015;28;20462;-84
2022/07/16 08:57:39;;;;;;;4.77;4.30;;;24.50;70.30;;;;;;5024655;28;20449;-84
2022/07/16 09:00:11;;;;;;;5.73;5.33;;;24.10;71.30;;;;;;5022004;28;20469;-85
2022/07/16 09:02:38;;;;;;;6.73;5.90;;;23.60;72.70;;;;;;5007653;28;20465;-83
2022/07/16 09:05:05;;;;;;;6.17;5.33;;;23.40;74.10;;;;;;5023780;28;20515;-83
2022/07/16 09:07:34;;;;;;;7.03;4.10;;;23.10;75.20;;;;;;5025423;28;20461;-84
2022/07/16 09:10:05;;;;;;;6.10;5.50;;;22.80;76.10;;;;;;5012869;28;20477;-83
2022/07/16 09:12:37;;;;;;;6.60;6.10;;;22.70;77.00;;;;;;5012403;28;20446;-84
2022/07/16 09:15:31;;;;;;;7.20;6.50;;;22.60;77.80;;;;;;5029440;28;20464;-86
2022/07/16 09:18:18;;;;;;;6.50;6.00;;;23.10;77.10;;;;;;5014010;28;20467;-83
2022/07/16 09:21:00;;;;;;;6.93;6.40;;;22.80;77.60;;;;;;5012173;28;20449;-85
2022/07/16 09:23:35;;;;;;;7.03;6.23;;;23.00;78.20;;;;;;5029216;28;20455;-83
2022/07/16 09:26:08;;;;;;;7.87;5.43;;;23.10;78.00;;;;;;5013397;28;20445;-85
2022/07/16 09:28:43;;;;;;;5.83;5.23;;;23.20;77.40;;;;;;5013305;28;20471;-85
2022/07/16 09:31:11;;;;;;;6.03;5.20;;;23.20;78.10;;;;;;5035267;28;21028;-87
2022/07/16 09:33:38;;;;;;;6.27;5.70;;;23.00;77.40;;;;;;5029341;28;20533;-85
2022/07/16 09:36:11;;;;;;;8.30;5.20;;;22.60;78.70;;;;;;5011661;28;20464;-86
2022/07/16 09:38:52;;;;;;;6.90;6.40;;;22.30;79.50;;;;;;5011781;28;20500;-85
2022/07/16 09:41:20;;;;;;;8.93;6.23;;;22.70;80.10;;;;;;5010798;28;20516;-84
2022/07/16 09:43:47;;;;;;;6.87;5.90;;;23.00;78.50;;;;;;5012869;28;22127;-87
2022/07/16 09:46:17;;;;;;;5.93;5.43;;;23.30;75.60;;;;;;5012839;28;20457;-84
2022/07/16 09:48:44;;;;;;;6.97;5.43;;;23.40;75.60;;;;;;5025248;28;20473;-85
2022/07/16 09:51:19;;;;;;;5.27;4.87;;;23.20;74.80;;;;;;5028081;28;21020;-86
2022/07/16 09:53:48;;;;;;;4.63;4.23;;;23.40;74.40;;;;;;5028632;28;20476;-85
2022/07/16 09:56:21;;;;;;;4.10;3.80;;;23.60;73.30;;;;;;5012102;28;20453;-85
2022/07/16 09:58:55;;;;;;;4.70;4.30;;;24.50;68.90;;;;;;5010449;28;20473;-85
2022/07/16 10:01:28;;;;;;;5.17;4.50;;;24.60;66.70;;;;;;5000377;28;20456;-87
2022/07/16 10:03:56;;;;;;;4.17;3.70;;;24.80;64.70;;;;;;5011745;28;20496;-86
2022/07/16 10:06:23;;;;;;;10.30;3.57;;;24.90;63.60;;;;;;5032048;28;20496;-84
2022/07/16 10:08:50;;;;;;;3.10;2.60;;;25.20;62.10;;;;;;5014183;28;20465;-85
2022/07/16 10:11:17;;;;;;;3.67;3.30;;;25.80;58.60;;;;;;5009710;28;20489;-86
2022/07/16 10:13:47;;;;;;;2.47;2.27;;;26.00;58.10;;;;;;5012235;28;20508;-84
2022/07/16 10:16:14;;;;;;;3.73;2.73;;;26.50;56.50;;;;;;5015516;28;20449;-86
2022/07/16 10:18:42;;;;;;;2.40;2.20;;;26.60;54.30;;;;;;5017160;28;20492;-84
2022/07/16 10:21:20;;;;;;;1.93;1.80;;;27.10;53.00;;;;;;5020309;28;20795;-85
2022/07/16 10:24:03;;;;;;;1.50;1.40;;;27.00;51.70;;;;;;5043739;28;20465;-86
2022/07/16 10:26:37;;;;;;;1.93;1.73;;;26.20;52.90;;;;;;5042130;28;20457;-85
2022/07/16 10:29:12;;;;;;;1.53;1.43;;;26.30;52.90;;;;;;5027119;28;20527;-86
2022/07/16 10:34:55;;;;;;;2.60;1.90;;;26.40;52.20;;;;;;5038664;28;20424;-85
2022/07/16 10:37:33;;;;;;;2.93;2.67;;;27.60;50.20;;;;;;5014741;28;20453;-85
2022/07/16 10:40:09;;;;;;;1.40;1.30;;;27.90;48.60;;;;;;5026266;28;20477;-85
2022/07/16 10:42:36;;;;;;;1.70;1.33;;;28.00;48.10;;;;;;5016300;28;20563;-86
2022/07/16 10:45:03;;;;;;;2.10;1.47;;;28.10;47.50;;;;;;5029067;28;20452;-85
2022/07/16 10:47:47;;;;;;;1.50;1.40;;;27.30;48.50;;;;;;5032541;28;20441;-83
2022/07/16 10:50:22;;;;;;;4.80;2.10;;;27.60;48.80;;;;;;5024427;28;20477;-86
2022/07/16 10:52:52;;;;;;;3.53;1.50;;;27.00;49.00;;;;;;5043665;28;20481;-85
2022/07/16 10:55:38;;;;;;;2.27;1.67;;;27.40;49.00;;;;;;5023908;28;20446;-86
2022/07/16 10:58:07;;;;;;;2.87;1.40;;;27.40;49.00;;;;;;5023904;28;20468;-85
2022/07/16 11:00:34;;;;;;;2.10;1.40;;;28.20;47.70;;;;;;5026863;28;20513;-86
2022/07/16 11:03:04;;;;;;;2.70;1.57;;;28.30;47.20;;;;;;5023740;28;20590;-84
2022/07/16 11:05:46;;;;;;;2.10;1.20;;;28.00;47.30;;;;;;5041685;28;20484;-84
2022/07/16 11:08:13;;;;;;;2.17;1.57;;;27.80;47.20;;;;;;5027503;28;20870;-86
2022/07/16 11:10:41;;;;;;;3.20;1.53;;;27.60;47.80;;;;;;5023840;28;20494;-87
2022/07/16 11:13:16;;;;;;;2.30;1.30;;;27.30;47.30;;;;;;5019452;28;20477;-84
2022/07/16 11:15:44;;;;;;;1.57;1.10;;;27.90;47.50;;;;;;5021690;28;20466;-85
2022/07/16 11:18:17;;;;;;;1.70;1.20;;;28.20;45.70;;;;;;5016875;28;20487;-83
2022/07/16 11:20:46;;;;;;;2.17;1.33;;;27.50;45.90;;;;;;5017552;28;20589;-84
2022/07/16 11:23:14;;;;;;;1.30;1.20;;;27.10;46.90;;;;;;5015803;28;20484;-83
2022/07/16 11:25:56;;;;;;;1.30;1.20;;;27.10;46.90;;;;;;5007480;28;20445;-84
2022/07/16 11:28:22;;;;;;;1.70;1.20;;;27.50;46.60;;;;;;5019725;28;20469;-84
2022/07/16 11:31:00;;;;;;;1.30;1.00;;;27.50;46.00;;;;;;5025919;28;20469;-85
2022/07/16 11:33:47;;;;;;;1.90;1.37;;;27.40;46.20;;;;;;5024107;28;20461;-84
2022/07/16 11:36:14;;;;;;;1.70;1.50;;;27.10;47.00;;;;;;5005995;28;20547;-85
2022/07/16 11:38:41;;;;;;;1.40;1.30;;;27.40;47.60;;;;;;5027705;28;20477;-83
2022/07/16 11:41:08;;;;;;;1.30;1.20;;;27.50;46.90;;;;;;5023991;28;20453;-84
2022/07/16 11:43:36;;;;;;;1.47;1.20;;;28.20;45.60;;;;;;5024296;28;20564;-83
2022/07/16 11:46:03;;;;;;;2.20;1.20;;;27.70;45.30;;;;;;5009935;28;20457;-83
2022/07/16 11:48:37;;;;;;;2.63;1.77;;;27.60;45.40;;;;;;5018146;28;20537;-85
2022/07/16 11:51:09;;;;;;;1.70;1.60;;;27.70;45.10;;;;;;5031932;28;20558;-86
2022/07/16 11:53:38;;;;;;;1.17;1.07;;;28.30;44.90;;;;;;5034872;28;20515;-85
2022/07/16 11:56:06;;;;;;;1.70;1.30;;;28.30;43.80;;;;;;5013486;28;20456;-85
2022/07/16 11:58:33;;;;;;;1.63;1.30;;;27.90;44.80;;;;;;5031278;28;20496;-84
2022/07/16 12:01:00;;;;;;;1.17;1.07;;;27.90;44.30;;;;;;5014275;28;20459;-85
2022/07/16 12:03:27;;;;;;;2.50;1.53;;;28.50;43.40;;;;;;5031631;28;20946;-85
2022/07/16 12:06:04;;;;;;;2.30;1.20;;;28.20;43.10;;;;;;5033574;28;20445;-84
2022/07/16 12:08:33;;;;;;;2.50;1.40;;;28.00;44.50;;;;;;5020575;28;20486;-85
2022/07/16 12:11:03;;;;;;;2.60;1.10;;;28.00;44.60;;;;;;5018374;28;20552;-85
2022/07/16 12:13:30;;;;;;;4.00;1.50;;;27.70;45.20;;;;;;5042440;28;20486;-83
2022/07/16 12:16:00;;;;;;;1.50;1.10;;;27.30;45.80;;;;;;5028268;28;20429;-87
2022/07/16 12:18:27;;;;;;;2.03;1.30;;;27.40;45.90;;;;;;5038136;28;20484;-84
2022/07/16 12:20:54;;;;;;;4.43;2.20;;;27.70;45.60;;;;;;5012325;28;20548;-83
2022/07/16 12:23:34;;;;;;;2.70;1.50;;;27.90;45.10;;;;;;5030520;28;20451;-83
2022/07/16 12:26:04;;;;;;;4.30;1.43;;;28.10;45.30;;;;;;5010201;28;20627;-84
2022/07/16 12:28:32;;;;;;;2.83;1.33;;;28.80;44.70;;;;;;5004871;28;20472;-85
2022/07/16 12:31:07;;;;;;;2.33;1.27;;;29.20;44.00;;;;;;5027881;28;20454;-84
2022/07/16 12:33:34;;;;;;;1.80;1.30;;;29.20;42.30;;;;;;5026747;28;20436;-86
2022/07/16 12:36:10;;;;;;;4.27;1.30;;;28.40;43.10;;;;;;5022370;28;20545;-84
2022/07/16 12:38:58;;;;;;;1.93;1.17;;;28.50;43.30;;;;;;5004488;28;20468;-83
2022/07/16 12:41:40;;;;;;;2.03;1.60;;;28.20;43.60;;;;;;5018512;28;20677;-84
2022/07/16 12:44:13;;;;;;;2.03;1.80;;;28.10;43.50;;;;;;5014912;28;20552;-86
2022/07/16 12:46:44;;;;;;;2.10;1.27;;;27.70;44.30;;;;;;5028279;28;20454;-84
2022/07/16 12:49:20;;;;;;;2.03;1.50;;;27.60;45.10;;;;;;5027960;28;20477;-85
2022/07/16 12:51:50;;;;;;;2.50;1.30;;;27.90;45.70;;;;;;5028099;28;20550;-83
2022/07/16 12:54:19;;;;;;;1.47;1.30;;;28.60;43.10;;;;;;5014088;28;20448;-85
2022/07/16 12:59:34;;;;;;;1.20;1.10;;;28.10;43.20;;;;;;5028168;28;20469;-85
2022/07/16 13:02:05;;;;;;;1.23;1.00;;;28.40;42.70;;;;;;5026415;28;20468;-85
2022/07/16 13:04:32;;;;;;;1.43;1.23;;;28.50;42.50;;;;;;5027913;28;20540;-87
2022/07/16 13:06:59;;;;;;;1.53;1.13;;;28.50;43.20;;;;;;5007898;28;20461;-87